Paso Robles Municipal Airport

KPRB · Californie, États-Unis

METAR anciennes KPRB · Paso Robles Municipal Airport

Tu vois ci-dessous les METAR des derniers jours. Sélectionne une année pour parcourir les METAR plus anciens, à partir de l'année 2007.

17 juin 2024

Temps Code Temps Temp. Vue Base cloud Vent METAR/SPECI
15:53
V
30 °C 10 mi - 320° 320° 8 kt METAR KPRB 172253Z AUTO 32008KT 10SM CLR 30/07 A2975 RMK AO2 SLP066 T03000072
14:53
V
29 °C 10 mi - Var Var 6 - 14 kt METAR KPRB 172153Z AUTO VRB06G14KT 10SM CLR 29/08 A2976 RMK AO2 SLP071 T02940078
13:53
V
28 °C 10 mi - 360° 360° 0 kt METAR KPRB 172053Z AUTO 00000KT 10SM CLR 28/08 A2979 RMK AO2 SLP079 T02780078 58018
12:53
V
26 °C 10 mi - 070° 070° 4 kt METAR KPRB 171953Z AUTO 07004KT 10SM CLR 26/08 A2981 RMK AO2 SLP085 T02610078
11:53
V
24 °C 10 mi - 300° 300° 10 - 15 kt METAR KPRB 171853Z AUTO 30010G15KT 10SM CLR 24/08 A2983 RMK AO2 SLP094 T02440078
10:53
V
23 °C 10 mi - 330° 330° 13 - 19 kt METAR KPRB 171753Z AUTO 33013G19KT 10SM CLR 23/08 A2984 RMK AO2 SLP099 T02330078 10233 20117 58009
09:53
V
21 °C 10 mi - 330° 330° 12 kt METAR KPRB 171653Z AUTO 33012KT 10SM CLR 21/08 A2985 RMK AO2 SLP101 T02060078
08:53
V
17 °C 10 mi - 330° 330° 13 kt METAR KPRB 171553Z AUTO 33013KT 10SM CLR 17/08 A2987 RMK AO2 SLP108 T01670078
07:53
V
14 °C 10 mi - 330° 330° 11 kt METAR KPRB 171453Z AUTO 33011KT 10SM CLR 14/07 A2987 RMK AO2 SLP108 T01390072 51010
06:53
V
12 °C 10 mi - 330° 330° 12 kt METAR KPRB 171353Z AUTO 33012KT 10SM CLR 12/07 A2986 RMK AO2 SLP105 T01220072
05:53
V
12 °C 10 mi - 340° 340° 10 kt METAR KPRB 171253Z AUTO 34010KT 10SM CLR 12/07 A2985 RMK AO2 SLP100 T01170067
04:53
V
12 °C 10 mi - 320° 320° 14 kt METAR KPRB 171153Z AUTO 32014KT 10SM CLR 12/07 A2984 RMK AO2 SLP096 T01220067 10167 20122 58001
03:53
V
13 °C 10 mi - 320° 320° 13 kt METAR KPRB 171053Z AUTO 32013KT 10SM CLR 13/06 A2984 RMK AO2 SLP097 T01280061
02:53
V
13 °C 10 mi - Var Var 6 kt METAR KPRB 170953Z AUTO VRB06KT 10SM CLR 13/06 A2984 RMK AO2 SLP096 T01330056
01:53
V
14 °C 10 mi - 310° 310° 11 - 18 kt METAR KPRB 170853Z AUTO 31011G18KT 10SM CLR 14/05 A2984 RMK AO2 SLP098 T01390050 53001
00:53
V
15 °C 10 mi - 320° 320° 11 kt METAR KPRB 170753Z AUTO 32011KT 10SM CLR 15/04 A2984 RMK AO2 SLP097 T01500044 403280089

16 juin 2024

Temps Code Temps Temp. Vue Base cloud Vent METAR/SPECI
23:53
V
16 °C 10 mi - 320° 320° 12 - 21 kt METAR KPRB 170653Z AUTO 32012G21KT 10SM CLR 16/04 A2984 RMK AO2 PK WND 32028/0555 SLP097 T01560044
22:53
V
17 °C 10 mi - 320° 320° 20 - 27 kt METAR KPRB 170553Z AUTO 32020G27KT 10SM CLR 17/04 A2984 RMK AO2 PK WND 31031/0538 SLP098 T01670039 10317 20167 51017
21:53
V
18 °C 10 mi - 310° 310° 17 - 22 kt METAR KPRB 170453Z AUTO 31017G22KT 10SM CLR 18/03 A2983 RMK AO2 SLP097 T01830028
20:53
V
19 °C 10 mi - 320° 320° 13 - 20 kt METAR KPRB 170353Z AUTO 32013G20KT 10SM CLR 19/03 A2980 RMK AO2 SLP087 T01940033
19:53
V
23 °C 10 mi - 330° 330° 14 - 23 kt METAR KPRB 170253Z AUTO 33014G23KT 10SM CLR 23/04 A2979 RMK AO2 PK WND 33031/0229 SLP081 T02330044 53012
18:53
V
27 °C 10 mi - 330° 330° 18 - 31 kt METAR KPRB 170153Z AUTO 33018G31KT 10SM CLR 27/04 A2977 RMK AO2 PK WND 32033/0117 SLP075 T02670044
17:53
V
29 °C 10 mi - 340° 340° 22 - 29 kt METAR KPRB 170053Z AUTO 34022G29KT 10SM CLR 29/03 A2975 RMK AO2 PK WND 33029/0050 SLP069 T02940033
16:53
V
32 °C 10 mi - 330° 330° 17 - 24 kt METAR KPRB 162353Z AUTO 33017G24KT 10SM CLR 32/01 A2975 RMK AO2 SLP067 T03170006 10328 20228 56017
15:53
V
33 °C 10 mi - 320° 320° 13 - 21 kt METAR KPRB 162253Z AUTO 32013G21KT 10SM CLR 33/04 A2977 RMK AO2 SLP072 T03280039
14:53
V
32 °C 10 mi - 320° 320° 12 - 17 kt METAR KPRB 162153Z AUTO 32012G17KT 10SM CLR 32/03 A2978 RMK AO2 SLP078 T03220028
13:53
V
31 °C 10 mi - 300° 300° 9 kt METAR KPRB 162053Z AUTO 30009KT 10SM CLR 31/02 A2980 RMK AO2 SLP084 T03060022 58020
12:53
V
29 °C 10 mi - 330° 330° 9 - 16 kt METAR KPRB 161953Z AUTO 33009G16KT 10SM CLR 29/03 A2982 RMK AO2 SLP091 T02940033
11:53
V
27 °C 10 mi - 330° 330° 9 kt METAR KPRB 161853Z AUTO 33009KT 10SM CLR 27/04 A2985 RMK AO2 SLP099 T02670044
10:53
V
23 °C 10 mi - 300° 300° 5 kt METAR KPRB 161753Z AUTO 30005KT 10SM CLR 23/08 A2986 RMK AO2 SLP106 T02280078 10228 20089 58010
09:53
V
18 °C 10 mi - 330° 330° 3 kt METAR KPRB 161653Z AUTO 33003KT 10SM CLR 18/08 A2988 RMK AO2 SLP114 T01830078
08:53
V
15 °C 10 mi - 310° 310° 4 kt METAR KPRB 161553Z AUTO 31004KT 10SM CLR 15/07 A2990 RMK AO2 SLP118 T01500072
07:53
V
12 °C 10 mi - Var Var 3 kt METAR KPRB 161453Z AUTO VRB03KT 10SM CLR 12/08 A2989 RMK AO2 SLP118 T01220078 53005
06:53
V
10 °C 10 mi - 330° 330° 5 kt METAR KPRB 161353Z AUTO 33005KT 10SM CLR 10/07 A2989 RMK AO2 SLP115 T01000072
05:53
V
9 °C 10 mi - 330° 330° 6 kt METAR KPRB 161253Z AUTO 33006KT 10SM CLR 09/07 A2988 RMK AO2 SLP112 T00890067
04:53
V
9 °C 10 mi - 310° 310° 8 kt METAR KPRB 161153Z AUTO 31008KT 10SM CLR 09/07 A2988 RMK AO2 SLP110 T00940067 10156 20094 55002
03:53
V
10 °C 10 mi - 310° 310° 8 kt METAR KPRB 161053Z AUTO 31008KT 10SM CLR 10/07 A2987 RMK AO2 SLP109 T01000067
02:53
V
11 °C 10 mi - 310° 310° 6 kt METAR KPRB 160953Z AUTO 31006KT 10SM CLR 11/07 A2987 RMK AO2 SLP109 T01060067
01:53
V
12 °C 10 mi - 320° 320° 10 kt METAR KPRB 160853Z AUTO 32010KT 10SM CLR 12/07 A2988 RMK AO2 SLP112 T01220067 58004
00:53
V
13 °C 10 mi - 320° 320° 12 kt METAR KPRB 160753Z AUTO 32012KT 10SM CLR 13/06 A2989 RMK AO2 SLP115 T01330061 403330106

15 juin 2024

Temps Code Temps Temp. Vue Base cloud Vent METAR/SPECI
23:53
V
14 °C 10 mi - 320° 320° 12 kt METAR KPRB 160653Z AUTO 32012KT 10SM CLR 14/06 A2989 RMK AO2 SLP116 T01440061
22:53
V
16 °C 10 mi - 320° 320° 12 - 21 kt METAR KPRB 160553Z AUTO 32012G21KT 10SM CLR 16/06 A2989 RMK AO2 SLP117 T01560061 10328 20156 51015
21:53
V
17 °C 10 mi - 310° 310° 14 kt METAR KPRB 160453Z AUTO 31014KT 10SM CLR 17/05 A2989 RMK AO2 SLP116 T01720050
20:53
V
19 °C 10 mi - 310° 310° 13 kt METAR KPRB 160353Z AUTO 31013KT 10SM CLR 19/06 A2986 RMK AO2 SLP106 T01890056
19:53
V
22 °C 10 mi - 310° 310° 14 - 21 kt METAR KPRB 160253Z AUTO 31014G21KT 10SM CLR 22/06 A2985 RMK AO2 SLP103 T02220061 53007
18:53
V
28 °C 10 mi - 300° 300° 13 kt METAR KPRB 160153Z AUTO 30013KT 10SM CLR 28/04 A2983 RMK AO2 SLP095 T02780039
17:53
V
30 °C 10 mi - 320° 320° 18 kt METAR KPRB 160053Z AUTO 32018KT 10SM CLR 30/00 A2983 RMK AO2 SLP093 T03000000
16:53
V
33 °C 10 mi - 340° 340° 12 kt METAR KPRB 152353Z AUTO 34012KT 10SM CLR 33/M03 A2983 RMK AO2 SLP094 T03281028 10333 20239 56021
15:53
V
33 °C 10 mi - 320° 320° 15 - 20 kt METAR KPRB 152253Z AUTO 32015G20KT 10SM CLR 33/M02 A2985 RMK AO2 SLP098 T03331022
14:53
V
32 °C 10 mi - 300° 300° 10 - 17 kt METAR KPRB 152153Z AUTO 30010G17KT 10SM CLR 32/M05 A2987 RMK AO2 SLP107 T03221050
13:53
V
31 °C 10 mi - 310° 310° 8 kt METAR KPRB 152053Z AUTO 31008KT 10SM CLR 31/02 A2990 RMK AO2 SLP116 T03110017 58022
12:53
V
29 °C 10 mi - 300° 300° 4 kt METAR KPRB 151953Z AUTO 30004KT 10SM CLR 29/00 A2992 RMK AO2 SLP125 T02890000
11:53
V
26 °C 10 mi - Var Var 3 kt METAR KPRB 151853Z AUTO VRB03KT 10SM CLR 26/00 A2995 RMK AO2 SLP133 T02610000
10:53
V
24 °C 10 mi - 330° 330° 7 kt METAR KPRB 151753Z AUTO 33007KT 10SM CLR 24/04 A2996 RMK AO2 SLP139 T02390039 10239 20106 58018
09:53
V
20 °C 10 mi - 340° 340° 6 kt METAR KPRB 151653Z AUTO 34006KT 10SM CLR 20/04 A2998 RMK AO2 SLP146 T02000044
08:53
V
16 °C 10 mi - 330° 330° 7 kt METAR KPRB 151553Z AUTO 33007KT 10SM CLR 16/06 A3000 RMK AO2 SLP154 T01610056
07:53
V
14 °C 10 mi - 020° 020° 5 kt METAR KPRB 151453Z AUTO 02005KT 10SM CLR 14/07 A3001 RMK AO2 SLP157 T01440067 53005
06:53
V
12 °C 10 mi - 320° 320° 10 kt METAR KPRB 151353Z AUTO 32010KT 10SM CLR 12/07 A3001 RMK AO2 SLP154 T01220067
05:53
V
11 °C 10 mi - 330° 330° 8 kt METAR KPRB 151253Z AUTO 33008KT 10SM CLR 11/06 A3000 RMK AO2 SLP153 T01110061
04:53
V
12 °C 10 mi - 340° 340° 12 kt METAR KPRB 151153Z AUTO 34012KT 10SM CLR 12/06 A3000 RMK AO2 SLP151 T01170061 10178 20111 55001
03:53
V
12 °C 10 mi - 320° 320° 9 kt METAR KPRB 151053Z AUTO 32009KT 10SM CLR 12/07 A2999 RMK AO2 SLP148 T01170067
02:53
V
12 °C 10 mi - 340° 340° 7 kt METAR KPRB 150953Z AUTO 34007KT 10SM CLR 12/06 A2999 RMK AO2 SLP148 T01220061
01:53
V
13 °C 10 mi - 310° 310° 16 kt METAR KPRB 150853Z AUTO 31016KT 10SM CLR 13/06 A3000 RMK AO2 SLP152 T01330061 51002
00:53
V
15 °C 10 mi - 310° 310° 12 kt METAR KPRB 150753Z AUTO 31012KT 10SM CLR 15/06 A3000 RMK AO2 PK WND 31026/0657 SLP150 T01500061 403560094

14 juin 2024

Temps Code Temps Temp. Vue Base cloud Vent METAR/SPECI
23:53
V
17 °C 10 mi - 310° 310° 19 - 28 kt METAR KPRB 150653Z AUTO 31019G28KT 10SM CLR 17/05 A3000 RMK AO2 PK WND 32028/0646 SLP153 T01720050
22:53
V
18 °C 10 mi - 320° 320° 14 - 22 kt METAR KPRB 150553Z AUTO 32014G22KT 10SM CLR 18/05 A3000 RMK AO2 SLP151 T01780050 10333 20178 51019
Signaler les modifications